Terminal Aerodrome Forecast
Issued by NWS Louisville, KY

Home | Current Version | Previous Version | Text Only | Print | Product List | Glossary On
Versions: 1 2 3 4 5 6 7 8 9 10 11 12 13 14 15 16
000
FTUS43 KLMK 110520
TAFLEX
TAF
KLEX 110520Z 1106/1206 16005KT P6SM BKN250
     FM111500 18013G20KT P6SM OVC150
     FM111800 19015G22KT P6SM OVC045
     FM120300 20012G22KT P6SM -SHRA OVC030=

USA.gov is the U.S. government's official web portal to all federal, state and local government web resources and services.